createdAt,value
2022-08-28T00:02:10.526Z,21.06
2022-08-28T00:04:40.453Z,21.10
2022-08-28T00:07:11.665Z,21.04
2022-08-28T00:09:42.515Z,21.01
2022-08-28T00:12:13.182Z,21.01
2022-08-28T00:14:44.021Z,20.96
2022-08-28T00:17:13.895Z,20.93
2022-08-28T00:19:43.839Z,20.84
2022-08-28T00:22:13.579Z,20.81
2022-08-28T00:24:48.675Z,20.84
2022-08-28T00:27:35.258Z,20.73
2022-08-28T00:30:02.542Z,20.57
2022-08-28T00:32:31.086Z,20.61
2022-08-28T00:35:02.863Z,20.59
2022-08-28T00:37:33.281Z,20.52
2022-08-28T00:40:00.780Z,20.52
2022-08-28T00:42:30.314Z,20.47
2022-08-28T00:45:01.667Z,20.39
2022-08-28T00:47:30.386Z,20.43
2022-08-28T00:50:00.396Z,20.43
2022-08-28T00:52:29.603Z,20.42
2022-08-28T00:55:07.797Z,20.44
2022-08-28T00:57:53.265Z,20.44
2022-08-28T01:00:25.977Z,20.46
2022-08-28T01:02:56.449Z,20.46
2022-08-28T01:05:33.516Z,20.44
2022-08-28T01:08:03.160Z,20.45
2022-08-28T01:10:35.094Z,20.42
2022-08-28T01:13:03.928Z,20.44
2022-08-28T01:15:36.093Z,20.47
2022-08-28T01:18:09.529Z,20.50
2022-08-28T01:20:45.619Z,20.42
2022-08-28T01:23:48.963Z,20.37
2022-08-28T01:26:18.705Z,20.43
2022-08-28T01:28:49.108Z,20.47
2022-08-28T01:31:18.685Z,20.52
2022-08-28T01:33:48.025Z,20.56
2022-08-28T01:36:19.896Z,20.60
2022-08-28T01:38:54.037Z,20.36
2022-08-28T01:41:22.872Z,20.43
2022-08-28T01:43:52.898Z,20.36
2022-08-28T01:46:23.315Z,20.40
2022-08-28T01:48:54.298Z,20.48
2022-08-28T01:51:24.883Z,20.52
2022-08-28T01:53:53.339Z,20.52
2022-08-28T01:56:20.946Z,20.52
2022-08-28T01:58:51.067Z,20.55
2022-08-28T02:01:22.416Z,20.50
2022-08-28T02:03:53.985Z,20.60
2022-08-28T02:06:26.697Z,20.64
2022-08-28T02:08:56.939Z,20.62
2022-08-28T02:11:26.197Z,20.63
2022-08-28T02:13:57.025Z,20.61
2022-08-28T02:16:26.859Z,20.52
2022-08-28T02:18:57.397Z,20.43
2022-08-28T02:21:25.788Z,20.50
2022-08-28T02:24:02.880Z,20.53
2022-08-28T02:26:33.259Z,20.57
2022-08-28T02:29:03.349Z,20.64
2022-08-28T02:31:33.669Z,20.70
2022-08-28T02:34:01.169Z,20.72
2022-08-28T02:36:30.815Z,20.71
2022-08-28T02:38:58.763Z,20.68
2022-08-28T02:41:27.101Z,20.62
2022-08-28T02:43:56.067Z,20.63
2022-08-28T02:46:26.217Z,20.56
2022-08-28T02:48:59.412Z,20.59
2022-08-28T02:51:34.345Z,20.55
2022-08-28T02:54:03.887Z,20.51
2022-08-28T02:56:33.833Z,20.50
2022-08-28T02:59:03.747Z,20.45
2022-08-28T03:01:41.095Z,20.45
2022-08-28T03:04:11.447Z,20.39
2022-08-28T03:06:39.685Z,20.35
2022-08-28T03:09:08.977Z,20.28
2022-08-28T03:11:37.840Z,20.24
2022-08-28T03:14:05.026Z,20.21
2022-08-28T03:16:34.398Z,20.20
2022-08-28T03:19:01.718Z,20.19
2022-08-28T03:21:31.255Z,20.14
2022-08-28T03:23:58.870Z,20.13
2022-08-28T03:26:26.875Z,20.07
2022-08-28T03:28:56.218Z,20.06
2022-08-28T03:31:31.665Z,20.01
2022-08-28T03:33:58.725Z,19.99
2022-08-28T03:36:30.908Z,19.95
2022-08-28T03:39:03.355Z,19.81
2022-08-28T03:41:34.219Z,19.85
2022-08-28T03:44:03.157Z,19.77
2022-08-28T03:46:35.322Z,19.71
2022-08-28T03:49:04.345Z,19.70
2022-08-28T03:51:35.155Z,19.81
2022-08-28T03:54:04.225Z,19.86
2022-08-28T03:56:34.388Z,19.70
2022-08-28T03:59:13.289Z,19.68
2022-08-28T04:01:41.215Z,19.73
2022-08-28T04:04:08.547Z,19.80
2022-08-28T04:06:36.148Z,19.83
2022-08-28T04:09:08.620Z,19.83
2022-08-28T04:11:44.643Z,19.86
2022-08-28T04:14:13.197Z,19.86
2022-08-28T04:16:43.901Z,19.73
2022-08-28T04:19:12.605Z,19.60
2022-08-28T04:21:40.058Z,19.73
2022-08-28T04:24:10.796Z,19.81
2022-08-28T04:26:41.179Z,19.88
2022-08-28T04:29:11.342Z,19.91
2022-08-28T04:31:40.107Z,19.97
2022-08-28T04:34:13.496Z,19.97
2022-08-28T04:36:43.580Z,19.94
2022-08-28T04:39:12.289Z,19.85
2022-08-28T04:41:42.839Z,19.82
2022-08-28T04:44:13.259Z,19.80
2022-08-28T04:46:48.202Z,19.82
2022-08-28T04:49:26.145Z,19.90
2022-08-28T04:51:55.389Z,20.03
2022-08-28T04:54:32.619Z,19.98
2022-08-28T04:57:10.699Z,19.92
2022-08-28T04:59:40.546Z,19.91
2022-08-28T05:02:12.087Z,19.69
2022-08-28T05:04:40.369Z,19.64
2022-08-28T05:07:10.468Z,19.59
2022-08-28T05:09:39.595Z,19.45
2022-08-28T05:12:08.436Z,19.43
2022-08-28T05:14:38.984Z,19.62
2022-08-28T05:17:09.476Z,19.64
2022-08-28T05:19:38.695Z,19.70
2022-08-28T05:22:06.123Z,19.71
2022-08-28T05:24:33.950Z,19.67
2022-08-28T05:27:04.675Z,19.76
2022-08-28T05:29:33.596Z,19.78
2022-08-28T05:32:01.440Z,19.92
2022-08-28T05:34:32.757Z,19.96
2022-08-28T05:37:03.902Z,19.97
2022-08-28T05:39:33.535Z,20.05
2022-08-28T05:42:03.409Z,20.01
2022-08-28T05:44:32.729Z,20.11
2022-08-28T05:47:00.167Z,20.27
2022-08-28T05:49:29.397Z,20.18
2022-08-28T05:52:05.835Z,20.23
2022-08-28T05:54:34.501Z,20.30
2022-08-28T05:57:03.790Z,20.26
2022-08-28T05:59:33.706Z,20.30
2022-08-28T06:02:04.444Z,20.32
2022-08-28T06:04:33.155Z,20.51
2022-08-28T06:07:03.819Z,20.68
2022-08-28T06:09:33.243Z,20.89
2022-08-28T06:12:05.818Z,21.04
2022-08-28T06:14:35.099Z,21.23
2022-08-28T06:17:05.120Z,21.40
2022-08-28T06:19:38.268Z,21.58
2022-08-28T06:22:14.871Z,21.79
2022-08-28T06:24:44.467Z,21.90
2022-08-28T06:27:11.981Z,21.96
2022-08-28T06:29:40.111Z,21.96
2022-08-28T06:32:17.794Z,22.03
2022-08-28T06:34:45.099Z,22.10
2022-08-28T06:37:14.448Z,22.23
2022-08-28T06:39:44.068Z,22.38
2022-08-28T06:42:14.558Z,22.87
2022-08-28T06:44:45.648Z,23.04
2022-08-28T06:47:15.511Z,23.20
2022-08-28T06:49:45.101Z,23.19
2022-08-28T06:52:14.687Z,23.06
2022-08-28T06:54:50.439Z,23.18
2022-08-28T06:57:26.586Z,23.27
2022-08-28T06:59:58.864Z,23.36
2022-08-28T07:02:29.299Z,23.40
2022-08-28T07:04:58.640Z,23.08
2022-08-28T07:10:07.420Z,22.71
2022-08-28T07:12:36.139Z,22.69
2022-08-28T07:15:05.052Z,22.76
2022-08-28T07:17:34.280Z,22.77
2022-08-28T07:20:09.499Z,22.67
2022-08-28T07:22:41.173Z,22.57
2022-08-28T07:25:11.179Z,22.62
2022-08-28T07:27:39.689Z,22.40
2022-08-28T07:30:11.737Z,22.40
2022-08-28T07:32:43.259Z,22.53
2022-08-28T07:35:11.100Z,22.87
2022-08-28T07:37:40.611Z,23.32
2022-08-28T07:40:14.174Z,23.77
2022-08-28T07:43:01.842Z,24.05
2022-08-28T07:45:32.923Z,24.48
2022-08-28T07:48:00.510Z,24.97
2022-08-28T07:50:28.528Z,25.57
2022-08-28T07:52:59.098Z,25.67
2022-08-28T07:55:29.738Z,25.71
2022-08-28T07:57:58.060Z,25.54
2022-08-28T08:00:25.178Z,25.45
2022-08-28T08:02:55.777Z,25.20
2022-08-28T08:05:25.908Z,24.90
2022-08-28T08:07:56.146Z,24.76
2022-08-28T08:10:26.497Z,24.84
2022-08-28T08:13:03.587Z,24.78
2022-08-28T08:15:35.358Z,24.64
2022-08-28T08:18:03.560Z,24.53
2022-08-28T08:20:33.661Z,24.67
2022-08-28T08:23:00.850Z,25.01
2022-08-28T08:25:29.348Z,25.57
2022-08-28T08:28:03.910Z,26.10
2022-08-28T08:30:33.309Z,26.48
2022-08-28T08:33:00.338Z,26.69
2022-08-28T08:35:29.886Z,26.75
2022-08-28T08:38:02.782Z,26.71
2022-08-28T08:40:31.610Z,27.17
2022-08-28T08:43:14.676Z,27.72
2022-08-28T08:45:46.758Z,28.11
2022-08-28T08:48:28.815Z,27.99
2022-08-28T08:51:04.139Z,27.96
2022-08-28T08:54:04.562Z,28.27
2022-08-28T08:56:34.595Z,28.70
2022-08-28T08:59:11.470Z,28.88
2022-08-28T09:02:09.554Z,28.42
2022-08-28T09:05:15.659Z,28.50
2022-08-28T09:08:07.120Z,28.29
2022-08-28T09:10:53.500Z,28.66
2022-08-28T09:13:54.973Z,28.80
2022-08-28T09:16:42.059Z,29.17
2022-08-28T09:19:15.605Z,29.51
2022-08-28T09:21:46.550Z,29.83
2022-08-28T09:24:33.747Z,29.76
2022-08-28T09:27:39.325Z,30.03
2022-08-28T09:30:11.658Z,29.87
2022-08-28T09:32:45.275Z,29.90
2022-08-28T09:35:34.379Z,30.22
2022-08-28T09:38:22.005Z,30.64
2022-08-28T09:41:34.932Z,30.67
2022-08-28T09:44:03.664Z,30.67
2022-08-28T09:46:35.156Z,30.52
2022-08-28T09:49:26.443Z,30.33
2022-08-28T09:51:57.020Z,30.16
2022-08-28T09:54:45.746Z,30.24
2022-08-28T09:57:14.688Z,30.19
2022-08-28T10:00:06.844Z,29.90
2022-08-28T10:03:24.190Z,29.53
2022-08-28T10:06:33.098Z,29.57
2022-08-28T10:09:34.538Z,29.27
2022-08-28T10:12:39.098Z,29.12
2022-08-28T10:15:43.328Z,29.57
2022-08-28T10:18:51.148Z,29.90
2022-08-28T10:21:46.091Z,29.13
2022-08-28T10:24:55.435Z,29.20
2022-08-28T10:28:03.569Z,29.49
2022-08-28T10:30:40.599Z,29.72
2022-08-28T10:33:39.277Z,29.80
2022-08-28T10:36:33.881Z,29.91
2022-08-28T10:39:28.945Z,30.51
2022-08-28T10:42:05.946Z,30.42
2022-08-28T10:45:05.576Z,29.97
2022-08-28T10:47:37.159Z,30.06
2022-08-28T10:50:32.871Z,29.79
2022-08-28T10:53:07.630Z,29.58
2022-08-28T10:55:59.673Z,29.30
2022-08-28T10:58:57.377Z,29.54
2022-08-28T11:01:35.481Z,29.59
2022-08-28T11:04:13.660Z,29.81
2022-08-28T11:06:48.452Z,30.10
2022-08-28T11:09:39.928Z,30.94
2022-08-28T11:12:20.297Z,31.49
2022-08-28T11:14:51.264Z,31.83
2022-08-28T11:17:33.346Z,31.99
2022-08-28T11:20:14.607Z,31.79
2022-08-28T11:23:30.376Z,31.30
2022-08-28T11:26:18.458Z,30.45
2022-08-28T11:28:49.220Z,29.31
2022-08-28T11:31:19.272Z,28.90
2022-08-28T11:33:59.341Z,28.14
2022-08-28T11:36:35.657Z,28.01
2022-08-28T11:39:19.948Z,27.77
2022-08-28T11:42:14.777Z,27.45
2022-08-28T11:44:49.796Z,27.35
2022-08-28T11:47:54.956Z,27.20
2022-08-28T11:50:30.218Z,26.88
2022-08-28T11:53:40.416Z,26.88
2022-08-28T11:57:04.360Z,26.95
2022-08-28T11:59:54.918Z,26.98
2022-08-28T12:02:40.725Z,27.11
2022-08-28T12:05:19.432Z,26.98
2022-08-28T12:07:50.460Z,26.90
2022-08-28T12:10:27.657Z,27.14
2022-08-28T12:13:04.434Z,27.32
2022-08-28T12:15:43.173Z,27.72
2022-08-28T12:18:39.301Z,27.86
2022-08-28T12:21:14.994Z,27.91
2022-08-28T12:23:58.867Z,28.48
2022-08-28T12:26:39.975Z,28.85
2022-08-28T12:29:39.218Z,29.21
2022-08-28T12:32:45.788Z,29.28
2022-08-28T12:35:30.197Z,29.30
2022-08-28T12:38:00.134Z,29.19
2022-08-28T12:40:56.108Z,29.38
2022-08-28T12:46:44.276Z,30.19
2022-08-28T12:49:49.636Z,30.19
2022-08-28T12:52:21.566Z,30.05
2022-08-28T12:54:51.714Z,29.85
2022-08-28T12:57:22.205Z,29.78
2022-08-28T12:59:53.205Z,29.84
2022-08-28T13:02:34.467Z,29.79
2022-08-28T13:05:07.868Z,29.79
2022-08-28T13:07:40.748Z,29.70
2022-08-28T13:10:31.137Z,29.72
2022-08-28T13:13:21.541Z,29.72
2022-08-28T13:16:05.634Z,29.81
2022-08-28T13:19:14.206Z,29.91
2022-08-28T13:21:59.561Z,29.85
2022-08-28T13:24:45.982Z,29.82
2022-08-28T13:27:21.650Z,29.75
2022-08-28T13:30:01.331Z,29.49
2022-08-28T13:32:40.596Z,29.38
2022-08-28T13:35:28.177Z,29.41
2022-08-28T13:38:10.645Z,29.55
2022-08-28T13:41:01.665Z,29.57
2022-08-28T13:43:44.133Z,29.38
2022-08-28T13:46:14.339Z,29.42
2022-08-28T13:48:44.859Z,29.05
2022-08-28T13:51:20.809Z,28.56
2022-08-28T13:53:51.073Z,28.29
2022-08-28T13:56:21.905Z,28.27
2022-08-28T13:58:57.719Z,28.25
2022-08-28T14:01:49.561Z,27.97
2022-08-28T14:04:38.355Z,27.62
2022-08-28T14:07:16.201Z,27.57
2022-08-28T14:09:44.537Z,27.57
2022-08-28T14:12:14.884Z,27.62
2022-08-28T14:14:44.758Z,27.59
2022-08-28T14:17:13.555Z,27.54
2022-08-28T14:19:40.966Z,27.47
2022-08-28T14:22:10.045Z,27.58
2022-08-28T14:24:37.890Z,27.54
2022-08-28T14:27:06.035Z,27.51
2022-08-28T14:29:34.874Z,27.48
2022-08-28T14:32:04.822Z,27.57
2022-08-28T14:34:33.178Z,27.58
2022-08-28T14:37:04.354Z,27.75
2022-08-28T14:39:32.755Z,27.77
2022-08-28T14:41:59.806Z,27.94
2022-08-28T14:44:29.714Z,28.05
2022-08-28T14:46:58.105Z,27.90
2022-08-28T14:49:29.154Z,27.96
2022-08-28T14:51:59.783Z,28.10
2022-08-28T14:54:29.403Z,28.05
2022-08-28T14:56:59.106Z,27.97
2022-08-28T14:59:30.231Z,28.07
2022-08-28T15:02:03.393Z,28.14
2022-08-28T15:04:36.274Z,28.48
2022-08-28T15:07:11.447Z,28.76
2022-08-28T15:09:41.525Z,28.88
2022-08-28T15:12:11.719Z,28.87
2022-08-28T15:14:51.386Z,29.06
2022-08-28T15:17:34.444Z,29.09
2022-08-28T15:20:05.106Z,29.30
2022-08-28T15:22:34.050Z,29.30
2022-08-28T15:25:04.616Z,29.31
2022-08-28T15:27:33.624Z,29.23
2022-08-28T15:30:02.102Z,29.09
2022-08-28T15:32:32.180Z,28.82
2022-08-28T15:35:00.525Z,28.74
2022-08-28T15:37:31.649Z,28.90
2022-08-28T15:40:22.496Z,29.04
2022-08-28T15:42:49.966Z,28.93
2022-08-28T15:45:19.314Z,28.76
2022-08-28T15:47:49.233Z,28.68
2022-08-28T15:50:19.870Z,28.76
2022-08-28T15:52:49.714Z,28.66
2022-08-28T15:55:24.485Z,28.62
2022-08-28T15:57:51.564Z,28.73
2022-08-28T16:00:19.241Z,28.76
2022-08-28T16:02:49.571Z,28.66
2022-08-28T16:05:20.066Z,28.49
2022-08-28T16:07:49.459Z,28.42
2022-08-28T16:10:20.114Z,28.49
2022-08-28T16:13:11.048Z,28.48
2022-08-28T16:15:40.147Z,28.36
2022-08-28T16:18:10.251Z,28.26
2022-08-28T16:20:41.725Z,28.09
2022-08-28T16:23:10.009Z,27.99
2022-08-28T16:25:37.355Z,27.83
2022-08-28T16:28:07.443Z,27.79
2022-08-28T16:30:43.860Z,27.83
2022-08-28T16:33:14.177Z,27.67
2022-08-28T16:35:49.148Z,27.59
2022-08-28T16:38:18.596Z,27.51
2022-08-28T16:40:49.764Z,27.46
2022-08-28T16:43:17.456Z,27.28
2022-08-28T16:45:47.666Z,27.08
2022-08-28T16:48:15.635Z,26.99
2022-08-28T16:50:44.582Z,26.89
2022-08-28T16:53:13.793Z,26.85
2022-08-28T16:55:54.116Z,26.79
2022-08-28T16:58:24.439Z,26.67
2022-08-28T17:00:54.971Z,26.52
2022-08-28T17:03:26.915Z,26.34
2022-08-28T17:05:56.617Z,26.14
2022-08-28T17:08:26.525Z,25.94
2022-08-28T17:10:56.108Z,25.78
2022-08-28T17:13:25.316Z,25.64
2022-08-28T17:15:53.656Z,25.57
2022-08-28T17:18:21.154Z,25.52
2022-08-28T17:21:19.690Z,25.48
2022-08-28T17:23:47.608Z,25.42
2022-08-28T17:26:15.633Z,25.38
2022-08-28T17:28:44.405Z,25.28
2022-08-28T17:31:14.867Z,25.22
2022-08-28T17:33:44.808Z,25.14
2022-08-28T17:36:28.922Z,25.07
2022-08-28T17:39:02.529Z,24.98
2022-08-28T17:41:29.910Z,24.96
2022-08-28T17:43:59.447Z,24.97
2022-08-28T17:46:27.609Z,24.91
2022-08-28T17:48:56.471Z,24.86
2022-08-28T17:51:43.087Z,24.82
2022-08-28T17:54:19.316Z,24.71
2022-08-28T17:56:56.517Z,24.62
2022-08-28T17:59:25.457Z,24.59
2022-08-28T18:02:16.834Z,24.50
2022-08-28T18:04:44.809Z,24.46
2022-08-28T18:07:13.376Z,24.37
2022-08-28T18:09:41.324Z,24.31
2022-08-28T18:12:12.544Z,24.23
2022-08-28T18:14:41.324Z,24.18
2022-08-28T18:17:11.642Z,24.17
2022-08-28T18:19:45.317Z,24.12
2022-08-28T18:22:14.946Z,24.10
2022-08-28T18:24:45.661Z,24.08
2022-08-28T18:27:14.195Z,24.03
2022-08-28T18:29:41.795Z,24.09
2022-08-28T18:32:10.367Z,24.08
2022-08-28T18:34:40.107Z,23.96
2022-08-28T18:37:10.357Z,23.98
2022-08-28T18:39:40.204Z,23.98
2022-08-28T18:42:11.647Z,24.03
2022-08-28T18:44:39.112Z,24.05
2022-08-28T18:47:10.495Z,24.04
2022-08-28T18:49:42.346Z,24.05
2022-08-28T18:52:10.578Z,24.04
2022-08-28T18:54:40.757Z,24.01
2022-08-28T18:57:10.902Z,23.99
2022-08-28T18:59:40.561Z,24.00
2022-08-28T19:02:11.069Z,23.98
2022-08-28T19:04:42.157Z,24.00
2022-08-28T19:07:14.124Z,23.99
2022-08-28T19:09:45.401Z,23.89
2022-08-28T19:12:15.207Z,23.89
2022-08-28T19:14:44.899Z,23.83
2022-08-28T19:17:19.137Z,23.78
2022-08-28T19:19:50.909Z,23.71
2022-08-28T19:22:19.954Z,23.68
2022-08-28T19:24:48.240Z,23.68
2022-08-28T19:27:16.914Z,23.67
2022-08-28T19:29:45.758Z,23.66
2022-08-28T19:32:16.818Z,23.64
2022-08-28T19:34:46.651Z,23.63
2022-08-28T19:37:16.361Z,23.63
2022-08-28T19:39:56.030Z,23.37
2022-08-28T19:42:30.848Z,23.33
2022-08-28T19:45:00.391Z,23.31
2022-08-28T19:47:35.418Z,23.18
2022-08-28T19:50:05.706Z,23.17
2022-08-28T19:52:36.616Z,23.20
2022-08-28T19:55:07.286Z,23.27
2022-08-28T19:57:44.520Z,23.33
2022-08-28T20:00:16.230Z,23.35
2022-08-28T20:02:46.201Z,23.34
2022-08-28T20:05:13.323Z,23.32
2022-08-28T20:07:41.899Z,23.29
2022-08-28T20:10:14.202Z,23.20
2022-08-28T20:12:48.400Z,23.11
2022-08-28T20:15:19.304Z,23.04
2022-08-28T20:17:50.351Z,22.98
2022-08-28T20:20:22.431Z,22.82
2022-08-28T20:22:54.388Z,22.57
2022-08-28T20:25:25.075Z,22.39
2022-08-28T20:27:59.532Z,22.51
2022-08-28T20:30:34.989Z,22.64
2022-08-28T20:33:05.005Z,22.67
2022-08-28T20:35:35.157Z,22.71
2022-08-28T20:38:04.108Z,22.79
2022-08-28T20:40:35.142Z,22.84
2022-08-28T20:43:02.600Z,22.83
2022-08-28T20:45:32.980Z,22.86
2022-08-28T20:48:00.435Z,22.90
2022-08-28T20:50:29.555Z,22.89
2022-08-28T20:52:56.657Z,22.93
2022-08-28T20:55:26.756Z,22.92
2022-08-28T20:57:55.873Z,22.88
2022-08-28T21:00:26.351Z,22.88
2022-08-28T21:02:55.683Z,22.90
2022-08-28T21:05:25.211Z,22.93
2022-08-28T21:07:55.148Z,22.90
2022-08-28T21:10:22.403Z,22.88
2022-08-28T21:12:50.680Z,22.91
2022-08-28T21:15:18.956Z,22.90
2022-08-28T21:17:49.915Z,22.91
2022-08-28T21:20:22.026Z,22.95
2022-08-28T21:22:59.957Z,22.97
2022-08-28T21:25:29.897Z,22.96
2022-08-28T21:27:58.356Z,22.86
2022-08-28T21:30:34.884Z,22.93
2022-08-28T21:33:04.194Z,22.95
2022-08-28T21:35:34.986Z,22.95
2022-08-28T21:38:04.520Z,22.94
2022-08-28T21:40:34.633Z,22.92
2022-08-28T21:43:05.453Z,22.94
2022-08-28T21:45:34.439Z,22.92
2022-08-28T21:48:05.481Z,22.90
2022-08-28T21:50:36.670Z,22.89
2022-08-28T21:53:05.455Z,22.87
2022-08-28T21:55:32.516Z,22.90
2022-08-28T21:57:59.600Z,22.90
2022-08-28T22:00:29.594Z,22.89
2022-08-28T22:02:59.802Z,22.89
2022-08-28T22:05:33.090Z,22.89
2022-08-28T22:08:03.489Z,22.87
2022-08-28T22:10:35.521Z,22.80
2022-08-28T22:13:09.144Z,22.79
2022-08-28T22:15:36.309Z,22.78
2022-08-28T22:18:07.671Z,22.79
2022-08-28T22:21:02.681Z,22.77
2022-08-28T22:23:35.887Z,22.73
2022-08-28T22:26:11.115Z,22.69
2022-08-28T22:28:38.741Z,22.64
2022-08-28T22:31:06.696Z,22.59
2022-08-28T22:33:36.513Z,22.56
2022-08-28T22:36:04.937Z,22.54
2022-08-28T22:38:33.880Z,22.45
2022-08-28T22:41:03.262Z,22.31
2022-08-28T22:43:30.574Z,22.21
2022-08-28T22:45:59.877Z,22.08
2022-08-28T22:48:30.976Z,22.11
2022-08-28T22:51:06.635Z,22.22
2022-08-28T22:53:36.675Z,22.21
2022-08-28T22:56:14.625Z,22.21
2022-08-28T22:58:52.019Z,22.20
2022-08-28T23:01:25.549Z,22.21
2022-08-28T23:03:55.246Z,22.18
2022-08-28T23:06:25.237Z,22.14
2022-08-28T23:08:55.292Z,22.10
2022-08-28T23:11:26.269Z,22.06
2022-08-28T23:13:55.996Z,22.06
2022-08-28T23:16:25.839Z,22.05
2022-08-28T23:19:13.535Z,21.92
2022-08-28T23:21:45.755Z,21.98
2022-08-28T23:24:16.285Z,22.00
2022-08-28T23:26:53.614Z,22.01
2022-08-28T23:29:21.849Z,22.01
2022-08-28T23:31:51.280Z,22.00
2022-08-28T23:34:20.280Z,21.99
2022-08-28T23:36:51.330Z,21.93
2022-08-28T23:39:19.305Z,21.95
2022-08-28T23:41:51.481Z,21.94
2022-08-28T23:44:23.295Z,21.89
2022-08-28T23:46:53.004Z,21.86
2022-08-28T23:49:26.347Z,21.83
2022-08-28T23:51:56.770Z,21.83
2022-08-28T23:54:26.195Z,21.77
2022-08-28T23:56:55.454Z,21.78
2022-08-28T23:59:26.504Z,21.80
